createdAt,value
2019-05-06T00:01:08.935Z,43.18
2019-05-06T00:03:37.469Z,43.20
2019-05-06T00:06:04.117Z,43.30
2019-05-06T00:08:30.754Z,43.18
2019-05-06T00:10:57.409Z,43.07
2019-05-06T00:13:24.264Z,43.24
2019-05-06T00:15:50.693Z,43.19
2019-05-06T00:18:17.356Z,43.06
2019-05-06T00:20:44.020Z,43.19
2019-05-06T00:23:10.703Z,43.10
2019-05-06T00:25:37.397Z,43.26
2019-05-06T00:28:06.044Z,43.16
2019-05-06T00:30:30.751Z,43.12
2019-05-06T00:32:57.387Z,43.12
2019-05-06T00:35:24.079Z,43.14
2019-05-06T00:37:50.720Z,43.18
2019-05-06T00:40:17.405Z,43.27
2019-05-06T00:42:44.560Z,43.30
2019-05-06T00:47:37.366Z,43.32
2019-05-06T00:50:04.291Z,43.25
2019-05-06T00:52:30.648Z,43.23
2019-05-06T00:54:57.290Z,43.24
2019-05-06T00:57:23.942Z,43.26
2019-05-06T00:59:50.622Z,43.35
2019-05-06T01:02:17.272Z,43.24
2019-05-06T01:04:44.604Z,43.30
2019-05-06T01:07:10.592Z,43.21
2019-05-06T01:09:37.275Z,43.24
2019-05-06T01:12:03.908Z,43.27
2019-05-06T01:14:30.559Z,43.32
2019-05-06T01:16:57.201Z,43.12
2019-05-06T01:19:23.843Z,43.26
2019-05-06T01:21:50.481Z,43.33
2019-05-06T01:24:17.159Z,43.26
2019-05-06T01:26:44.306Z,43.18
2019-05-06T01:29:10.476Z,43.21
2019-05-06T01:31:42.651Z,43.24
2019-05-06T01:34:04.882Z,43.21
2019-05-06T01:36:31.584Z,43.14
2019-05-06T01:38:58.216Z,43.06
2019-05-06T01:41:24.888Z,43.08
2019-05-06T01:43:51.529Z,43.17
2019-05-06T01:46:18.202Z,43.09
2019-05-06T01:48:44.860Z,43.15
2019-05-06T01:51:11.495Z,42.99
2019-05-06T01:53:38.144Z,43.02
2019-05-06T01:56:04.772Z,43.00
2019-05-06T01:58:33.442Z,42.90
2019-05-06T02:00:58.080Z,43.05
2019-05-06T02:03:24.718Z,42.93
2019-05-06T02:08:18.048Z,42.88
2019-05-06T02:10:44.676Z,42.83
2019-05-06T02:13:11.387Z,42.68
2019-05-06T02:15:38.027Z,42.67
2019-05-06T02:18:04.662Z,42.73
2019-05-06T02:20:31.360Z,42.76
2019-05-06T02:22:57.997Z,42.67
2019-05-06T02:25:24.676Z,42.71
2019-05-06T02:27:54.306Z,42.58
2019-05-06T02:30:20.870Z,42.63
2019-05-06T02:32:47.496Z,42.64
2019-05-06T02:35:14.900Z,42.54
2019-05-06T02:37:40.845Z,42.46
2019-05-06T02:40:07.527Z,42.47
2019-05-06T02:42:34.170Z,42.28
2019-05-06T02:45:03.698Z,42.26
2019-05-06T02:47:27.527Z,42.24
2019-05-06T02:49:54.196Z,42.27
2019-05-06T02:52:22.960Z,42.18
2019-05-06T02:54:47.518Z,42.14
2019-05-06T02:57:14.169Z,42.10
2019-05-06T02:59:43.930Z,42.06
2019-05-06T03:02:07.483Z,42.13
2019-05-06T03:04:34.176Z,42.02
2019-05-06T03:07:03.753Z,42.02
2019-05-06T03:09:27.528Z,42.01
2019-05-06T03:11:54.310Z,41.98
2019-05-06T03:14:23.406Z,41.95
2019-05-06T03:16:47.477Z,41.94
2019-05-06T03:19:14.173Z,41.90
2019-05-06T03:21:44.493Z,41.88
2019-05-06T03:24:07.601Z,41.83
2019-05-06T03:26:34.151Z,41.86
2019-05-06T03:29:02.881Z,41.67
2019-05-06T03:31:27.478Z,41.84
2019-05-06T03:34:16.255Z,41.79
2019-05-06T03:36:27.148Z,41.80
2019-05-06T03:38:47.405Z,41.84
2019-05-06T03:41:14.184Z,41.75
2019-05-06T03:43:43.232Z,41.74
2019-05-06T03:46:07.324Z,41.77
2019-05-06T03:48:33.958Z,41.79
2019-05-06T03:51:03.832Z,41.79
2019-05-06T03:53:27.269Z,41.81
2019-05-06T03:55:54.181Z,41.82
2019-05-06T03:58:23.574Z,41.89
2019-05-06T04:00:47.281Z,41.83
2019-05-06T04:03:14.209Z,41.89
2019-05-06T04:05:43.576Z,41.89
2019-05-06T04:08:07.320Z,41.93
2019-05-06T04:10:37.001Z,42.00
2019-05-06T04:13:03.908Z,41.91
2019-05-06T04:15:27.395Z,41.84
2019-05-06T04:17:54.283Z,41.93
2019-05-06T04:20:23.401Z,41.98
2019-05-06T04:22:47.331Z,41.97
2019-05-06T04:25:14.145Z,41.96
2019-05-06T04:27:42.953Z,42.10
2019-05-06T04:30:07.258Z,42.01
2019-05-06T04:32:34.243Z,42.02
2019-05-06T04:37:27.215Z,41.87
2019-05-06T04:39:53.916Z,41.82
2019-05-06T04:42:23.258Z,41.86
2019-05-06T04:44:47.185Z,41.82
2019-05-06T04:47:14.879Z,41.92
2019-05-06T04:49:43.450Z,42.11
2019-05-06T04:52:07.255Z,42.29
2019-05-06T04:54:33.941Z,42.32
2019-05-06T04:57:00.544Z,42.27
2019-05-06T04:59:27.184Z,42.20
2019-05-06T05:01:53.827Z,42.12
2019-05-06T05:04:28.364Z,42.25
2019-05-06T05:06:47.159Z,42.13
2019-05-06T05:09:17.083Z,42.05
2019-05-06T05:11:42.549Z,42.00
2019-05-06T05:14:07.205Z,41.97
2019-05-06T05:16:33.834Z,42.05
2019-05-06T05:19:02.638Z,42.08
2019-05-06T05:21:27.141Z,42.09
2019-05-06T05:23:53.814Z,42.04
2019-05-06T05:26:22.402Z,41.95
2019-05-06T05:28:47.151Z,42.04
2019-05-06T05:31:13.795Z,42.02
2019-05-06T05:33:42.150Z,41.98
2019-05-06T05:36:07.127Z,41.96
2019-05-06T05:38:33.770Z,41.91
2019-05-06T05:41:00.412Z,41.89
2019-05-06T05:43:27.056Z,42.00
2019-05-06T05:45:53.702Z,41.94
2019-05-06T05:48:20.383Z,41.92
2019-05-06T05:50:47.061Z,42.00
2019-05-06T05:53:13.717Z,42.02
2019-05-06T05:55:42.298Z,41.91
2019-05-06T05:58:07.067Z,42.00
2019-05-06T06:00:33.703Z,42.06
2019-05-06T06:03:00.344Z,42.07
2019-05-06T06:05:27.010Z,41.96
2019-05-06T06:07:53.700Z,42.07
2019-05-06T06:10:22.470Z,42.05
2019-05-06T06:12:46.972Z,42.04
2019-05-06T06:15:13.652Z,42.09
2019-05-06T06:17:40.296Z,42.08
2019-05-06T06:20:06.981Z,42.05
2019-05-06T06:22:33.677Z,42.08
2019-05-06T06:25:00.325Z,42.20
2019-05-06T06:27:26.964Z,42.14
2019-05-06T06:32:20.247Z,42.16
2019-05-06T06:34:46.885Z,41.97
2019-05-06T06:37:13.560Z,41.89
2019-05-06T06:39:42.190Z,41.93
2019-05-06T06:42:06.947Z,41.88
2019-05-06T06:44:33.597Z,41.75
2019-05-06T06:47:02.075Z,41.53
2019-05-06T06:49:26.922Z,41.37
2019-05-06T06:51:53.566Z,41.19
2019-05-06T06:54:20.268Z,40.98
2019-05-06T06:56:46.907Z,40.86
2019-05-06T06:59:13.615Z,40.74
2019-05-06T07:01:42.218Z,40.55
2019-05-06T07:04:11.182Z,40.42
2019-05-06T07:06:33.529Z,40.47
2019-05-06T07:09:00.233Z,40.46
2019-05-06T07:11:26.868Z,40.53
2019-05-06T07:13:53.517Z,40.48
2019-05-06T07:16:20.885Z,40.52
2019-05-06T07:18:46.950Z,40.40
2019-05-06T07:21:14.078Z,40.24
2019-05-06T07:23:42.077Z,40.23
2019-05-06T07:26:06.913Z,40.22
2019-05-06T07:31:14.937Z,40.15
2019-05-06T07:33:26.843Z,40.09
2019-05-06T07:35:53.487Z,39.96
2019-05-06T07:38:20.140Z,39.90
2019-05-06T07:40:46.781Z,39.87
2019-05-06T07:43:13.453Z,39.89
2019-05-06T07:45:42.276Z,39.82
2019-05-06T07:48:06.768Z,39.72
2019-05-06T07:50:33.414Z,39.61
2019-05-06T07:53:02.231Z,39.51
2019-05-06T07:55:26.737Z,39.52
2019-05-06T07:57:53.421Z,39.41
2019-05-06T08:00:20.060Z,39.31
2019-05-06T08:02:46.703Z,39.19
2019-05-06T08:05:13.387Z,39.18
2019-05-06T08:07:42.121Z,39.08
2019-05-06T08:10:06.746Z,39.01
2019-05-06T08:12:33.384Z,38.86
2019-05-06T08:15:04.448Z,38.87
2019-05-06T08:17:26.729Z,38.78
2019-05-06T08:19:53.501Z,38.77
2019-05-06T08:22:20.181Z,38.71
2019-05-06T08:24:46.813Z,38.70
2019-05-06T08:27:13.490Z,38.73
2019-05-06T08:29:42.329Z,38.81
2019-05-06T08:32:06.877Z,38.78
2019-05-06T08:34:34.273Z,38.67
2019-05-06T08:39:26.951Z,38.75
2019-05-06T08:41:53.581Z,38.74
2019-05-06T08:44:22.377Z,38.87
2019-05-06T08:46:46.873Z,39.02
2019-05-06T08:49:13.547Z,38.98
2019-05-06T08:51:42.414Z,39.06
2019-05-06T08:54:06.856Z,39.25
2019-05-06T08:56:33.487Z,39.35
2019-05-06T08:59:00.124Z,39.33
2019-05-06T09:01:26.806Z,39.47
2019-05-06T09:04:06.331Z,39.53
2019-05-06T09:06:29.306Z,39.37
2019-05-06T09:08:46.739Z,39.59
2019-05-06T09:11:13.491Z,39.54
2019-05-06T09:13:40.134Z,39.45
2019-05-06T09:16:06.775Z,39.54
2019-05-06T09:18:33.433Z,39.53
2019-05-06T09:21:00.076Z,39.52
2019-05-06T09:23:27.657Z,39.51
2019-05-06T09:25:53.393Z,39.48
2019-05-06T09:28:20.033Z,39.39
2019-05-06T09:30:46.684Z,39.44
2019-05-06T09:33:13.321Z,39.53
2019-05-06T09:35:42.062Z,39.45
2019-05-06T09:38:06.649Z,39.31
2019-05-06T09:40:33.281Z,39.22
2019-05-06T09:42:59.938Z,39.07
2019-05-06T09:45:26.580Z,39.03
2019-05-06T09:47:53.301Z,38.90
2019-05-06T09:50:19.959Z,38.75
2019-05-06T09:52:46.599Z,38.67
2019-05-06T09:55:13.251Z,38.66
2019-05-06T09:57:39.889Z,38.62
2019-05-06T10:00:06.584Z,38.58
2019-05-06T10:02:33.232Z,38.42
2019-05-06T10:04:59.917Z,38.27
2019-05-06T10:07:26.560Z,38.24
2019-05-06T10:09:53.236Z,38.21
2019-05-06T10:12:19.875Z,38.21
2019-05-06T10:14:46.554Z,38.09
2019-05-06T10:17:13.364Z,37.98
2019-05-06T10:19:39.842Z,38.07
2019-05-06T10:22:06.522Z,37.95
2019-05-06T10:24:33.162Z,37.86
2019-05-06T10:26:59.799Z,37.67
2019-05-06T10:29:26.430Z,37.71
2019-05-06T10:31:53.081Z,37.65
2019-05-06T10:34:22.064Z,37.66
2019-05-06T10:36:46.412Z,37.57
2019-05-06T10:39:13.048Z,37.56
2019-05-06T10:41:42.211Z,37.52
2019-05-06T10:44:06.412Z,37.46
2019-05-06T10:46:33.050Z,37.26
2019-05-06T10:48:59.727Z,37.14
2019-05-06T10:51:26.337Z,37.18
2019-05-06T10:53:52.980Z,37.05
2019-05-06T10:56:19.612Z,36.97
2019-05-06T10:58:46.292Z,36.81
2019-05-06T11:01:12.950Z,36.76
2019-05-06T11:03:41.522Z,36.67
2019-05-06T11:06:06.241Z,36.71
2019-05-06T11:08:33.012Z,36.60
2019-05-06T11:11:14.502Z,36.47
2019-05-06T11:13:28.255Z,36.44
2019-05-06T11:15:55.593Z,36.38
2019-05-06T11:18:23.221Z,36.31
2019-05-06T11:20:46.576Z,36.19
2019-05-06T11:23:14.137Z,36.17
2019-05-06T11:25:39.853Z,36.17
2019-05-06T11:28:06.508Z,36.15
2019-05-06T11:30:33.260Z,36.13
2019-05-06T11:32:59.834Z,36.10
2019-05-06T11:35:26.515Z,36.04
2019-05-06T11:37:54.313Z,36.01
2019-05-06T11:40:19.791Z,36.05
2019-05-06T11:42:46.467Z,36.02
2019-05-06T11:45:13.124Z,36.03
2019-05-06T11:47:41.942Z,36.04
2019-05-06T11:50:06.420Z,35.97
2019-05-06T11:52:34.701Z,35.95
2019-05-06T11:55:02.048Z,35.92
2019-05-06T11:57:26.455Z,35.88
2019-05-06T11:59:53.091Z,35.80
2019-05-06T12:02:19.736Z,35.78
2019-05-06T12:04:46.421Z,35.79
2019-05-06T12:07:15.623Z,35.79
2019-05-06T12:09:39.847Z,35.77
2019-05-06T12:12:06.540Z,35.79
2019-05-06T12:17:02.029Z,35.78
2019-05-06T12:19:26.493Z,35.80
2019-05-06T12:21:53.129Z,35.82
2019-05-06T12:24:19.786Z,35.83
2019-05-06T12:26:46.422Z,35.87
2019-05-06T12:29:13.102Z,35.72
2019-05-06T12:31:42.014Z,35.72
2019-05-06T12:34:06.437Z,35.78
2019-05-06T12:36:33.153Z,35.76
2019-05-06T12:38:59.795Z,35.79
2019-05-06T12:41:26.476Z,35.91
2019-05-06T12:43:53.107Z,36.04
2019-05-06T12:46:19.752Z,35.88
2019-05-06T12:51:13.097Z,36.12
2019-05-06T12:53:39.781Z,36.06
2019-05-06T12:56:06.425Z,36.10
2019-05-06T12:58:33.070Z,36.12
2019-05-06T13:00:59.701Z,36.31
2019-05-06T13:03:26.379Z,36.38
2019-05-06T13:05:53.043Z,36.41
2019-05-06T13:08:21.204Z,36.41
2019-05-06T13:10:46.353Z,36.47
2019-05-06T13:13:13.101Z,36.27
2019-05-06T13:15:39.856Z,36.51
2019-05-06T13:18:07.557Z,36.45
2019-05-06T13:20:34.171Z,36.46
2019-05-06T13:22:59.787Z,36.46
2019-05-06T13:25:26.463Z,36.61
2019-05-06T13:27:53.108Z,36.67
2019-05-06T13:30:22.538Z,36.63
2019-05-06T13:32:46.402Z,36.67
2019-05-06T13:37:39.719Z,36.46
2019-05-06T13:40:06.444Z,36.45
2019-05-06T13:42:33.300Z,36.46
2019-05-06T13:44:59.687Z,36.63
2019-05-06T13:47:26.327Z,36.60
2019-05-06T13:49:52.974Z,36.72
2019-05-06T13:52:19.654Z,36.72
2019-05-06T13:54:46.342Z,36.64
2019-05-06T13:57:12.970Z,36.73
2019-05-06T13:59:39.608Z,36.67
2019-05-06T14:02:07.854Z,36.69
2019-05-06T14:04:32.924Z,36.41
2019-05-06T14:07:02.081Z,36.54
2019-05-06T14:09:32.032Z,36.39
2019-05-06T14:11:52.971Z,36.41
2019-05-06T14:14:19.617Z,36.39
2019-05-06T14:16:46.275Z,36.44
2019-05-06T14:19:13.314Z,36.45
2019-05-06T14:21:39.628Z,36.39
2019-05-06T14:24:06.336Z,36.51
2019-05-06T14:26:33.290Z,36.54
2019-05-06T14:28:59.617Z,36.50
2019-05-06T14:31:26.274Z,36.46
2019-05-06T14:33:52.970Z,36.42
2019-05-06T14:36:19.611Z,36.35
2019-05-06T14:38:46.323Z,36.17
2019-05-06T14:41:13.316Z,36.17
2019-05-06T14:43:39.601Z,36.05
2019-05-06T14:46:06.251Z,36.02
2019-05-06T14:48:33.245Z,35.98
2019-05-06T14:50:59.543Z,35.97
2019-05-06T14:53:26.180Z,35.94
2019-05-06T14:55:52.860Z,35.96
2019-05-06T14:58:19.495Z,35.91
2019-05-06T15:00:46.171Z,35.89
2019-05-06T15:03:13.079Z,35.85
2019-05-06T15:05:39.490Z,35.85
2019-05-06T15:08:06.128Z,35.81
2019-05-06T15:10:32.802Z,35.73
2019-05-06T15:12:59.440Z,35.73
2019-05-06T15:15:26.171Z,35.58
2019-05-06T15:20:19.484Z,35.67
2019-05-06T15:22:46.130Z,35.65
2019-05-06T15:25:13.096Z,35.61
2019-05-06T15:27:39.451Z,35.65
2019-05-06T15:30:06.085Z,35.83
2019-05-06T15:32:32.888Z,35.77
2019-05-06T15:34:59.529Z,35.71
2019-05-06T15:37:26.185Z,35.74
2019-05-06T15:39:52.836Z,35.92
2019-05-06T15:42:19.513Z,36.03
2019-05-06T15:44:46.189Z,36.07
2019-05-06T15:47:13.316Z,36.30
2019-05-06T15:49:39.476Z,36.45
2019-05-06T15:52:06.128Z,36.48
2019-05-06T15:54:32.763Z,36.52
2019-05-06T15:56:59.441Z,36.71
2019-05-06T15:59:26.117Z,36.86
2019-05-06T16:01:53.260Z,36.90
2019-05-06T16:06:46.047Z,37.06
2019-05-06T16:09:14.411Z,37.13
2019-05-06T16:11:39.337Z,37.18
2019-05-06T16:14:05.985Z,37.19
2019-05-06T16:16:33.387Z,37.11
2019-05-06T16:18:59.359Z,37.33
2019-05-06T16:21:26.045Z,37.40
2019-05-06T16:23:54.907Z,37.45
2019-05-06T16:26:19.436Z,37.43
2019-05-06T16:28:46.132Z,37.44
2019-05-06T16:31:13.066Z,37.43
2019-05-06T16:33:39.498Z,37.34
2019-05-06T16:36:06.146Z,37.46
2019-05-06T16:38:32.929Z,37.42
2019-05-06T16:41:10.368Z,37.26
2019-05-06T16:43:26.118Z,37.33
2019-05-06T16:45:53.355Z,37.31
2019-05-06T16:50:46.103Z,37.27
2019-05-06T16:53:12.749Z,37.28
2019-05-06T16:55:39.444Z,37.28
2019-05-06T16:58:06.086Z,37.16
2019-05-06T17:00:32.765Z,37.05
2019-05-06T17:03:00.178Z,36.90
2019-05-06T17:05:26.095Z,36.74
2019-05-06T17:07:52.727Z,36.71
2019-05-06T17:10:22.741Z,36.59
2019-05-06T17:12:49.048Z,36.44
2019-05-06T17:15:15.688Z,36.48
2019-05-06T17:17:46.668Z,36.57
2019-05-06T17:20:09.000Z,36.58
2019-05-06T17:22:35.647Z,36.48
2019-05-06T17:25:02.466Z,36.53
2019-05-06T17:27:28.978Z,36.41
2019-05-06T17:29:55.613Z,36.27
2019-05-06T17:32:22.332Z,36.14
2019-05-06T17:34:48.894Z,35.97
2019-05-06T17:37:15.536Z,36.22
2019-05-06T17:39:42.510Z,35.97
2019-05-06T17:42:08.876Z,35.93
2019-05-06T17:44:35.519Z,35.94
2019-05-06T17:49:28.803Z,35.78
2019-05-06T17:51:55.480Z,35.65
2019-05-06T17:54:25.441Z,35.69
2019-05-06T17:56:48.754Z,35.53
2019-05-06T17:59:15.484Z,35.43
2019-05-06T18:01:42.187Z,35.45
2019-05-06T18:04:08.816Z,35.43
2019-05-06T18:06:35.452Z,35.38
2019-05-06T18:09:02.605Z,35.30
2019-05-06T18:11:28.783Z,35.27
2019-05-06T18:13:55.436Z,35.22
2019-05-06T18:16:24.785Z,35.22
2019-05-06T18:18:52.349Z,35.25
2019-05-06T18:23:44.712Z,35.17
2019-05-06T18:26:11.388Z,35.16
2019-05-06T18:28:38.028Z,35.17
2019-05-06T18:31:04.673Z,35.15
2019-05-06T18:33:32.633Z,35.10
2019-05-06T18:35:57.997Z,35.15
2019-05-06T18:38:24.642Z,35.12
2019-05-06T18:40:52.905Z,35.16
2019-05-06T18:43:17.927Z,35.21
2019-05-06T18:45:44.555Z,35.14
2019-05-06T18:48:11.236Z,35.15
2019-05-06T18:50:37.876Z,35.14
2019-05-06T18:53:04.520Z,35.11
2019-05-06T18:57:57.817Z,35.08
2019-05-06T19:00:24.553Z,35.08
2019-05-06T19:02:52.288Z,35.23
2019-05-06T19:05:17.894Z,35.16
2019-05-06T19:07:46.741Z,35.08
2019-05-06T19:10:12.857Z,35.08
2019-05-06T19:12:41.332Z,35.13
2019-05-06T19:15:04.456Z,35.05
2019-05-06T19:17:33.428Z,35.02
2019-05-06T19:19:57.744Z,35.09
2019-05-06T19:22:24.459Z,35.11
2019-05-06T19:24:52.099Z,35.01
2019-05-06T19:27:17.788Z,35.10
2019-05-06T19:29:44.436Z,35.11
2019-05-06T19:32:12.312Z,35.07
2019-05-06T19:34:37.717Z,35.15
2019-05-06T19:37:04.393Z,35.14
2019-05-06T19:39:32.937Z,35.09
2019-05-06T19:41:57.689Z,35.13
2019-05-06T19:44:24.330Z,35.03
2019-05-06T19:46:53.098Z,35.13
2019-05-06T19:49:17.663Z,35.15
2019-05-06T19:51:44.291Z,35.17
2019-05-06T19:54:12.605Z,35.18
2019-05-06T19:56:37.691Z,35.14
2019-05-06T19:59:05.766Z,35.20
2019-05-06T20:01:32.301Z,35.22
2019-05-06T20:03:57.672Z,35.25
2019-05-06T20:06:24.356Z,35.31
2019-05-06T20:08:52.881Z,35.36
2019-05-06T20:11:17.673Z,35.37
2019-05-06T20:13:44.331Z,35.39
2019-05-06T20:16:12.467Z,35.33
2019-05-06T20:18:37.665Z,35.32
2019-05-06T20:21:04.407Z,35.34
2019-05-06T20:23:32.797Z,35.40
2019-05-06T20:25:57.694Z,35.34
2019-05-06T20:28:24.392Z,35.19
2019-05-06T20:30:52.892Z,35.34
2019-05-06T20:33:17.710Z,35.30
2019-05-06T20:35:44.361Z,35.29
2019-05-06T20:40:38.555Z,35.34
2019-05-06T20:43:16.519Z,35.31
2019-05-06T20:45:35.129Z,35.31
2019-05-06T20:47:57.600Z,35.35
2019-05-06T20:50:24.287Z,35.33
2019-05-06T20:52:52.011Z,35.21
2019-05-06T20:55:17.646Z,35.26
2019-05-06T20:57:44.275Z,35.27
2019-05-06T21:00:12.721Z,35.22
2019-05-06T21:02:37.611Z,35.26
2019-05-06T21:05:04.292Z,35.25
2019-05-06T21:07:32.389Z,35.21
2019-05-06T21:09:57.584Z,35.18
2019-05-06T21:12:24.230Z,35.22
2019-05-06T21:14:50.874Z,35.24
2019-05-06T21:17:17.582Z,35.17
2019-05-06T21:19:44.227Z,35.20
2019-05-06T21:22:13.079Z,35.10
2019-05-06T21:24:37.553Z,35.16
2019-05-06T21:27:04.234Z,35.14
2019-05-06T21:29:32.501Z,35.07
2019-05-06T21:31:57.548Z,35.11
2019-05-06T21:34:24.203Z,34.96
2019-05-06T21:36:53.085Z,35.00
2019-05-06T21:39:22.338Z,34.93
2019-05-06T21:41:47.055Z,34.84
2019-05-06T21:44:13.741Z,34.92
2019-05-06T21:46:42.689Z,34.78
2019-05-06T21:51:33.705Z,34.77
2019-05-06T21:54:02.664Z,34.70
2019-05-06T21:56:27.002Z,34.66
2019-05-06T21:58:53.688Z,34.65
2019-05-06T22:03:46.969Z,34.56
2019-05-06T22:06:13.629Z,34.54
2019-05-06T22:08:42.243Z,34.53
2019-05-06T22:11:06.916Z,34.55
2019-05-06T22:13:33.570Z,34.51
2019-05-06T22:16:04.352Z,34.44
2019-05-06T22:18:26.898Z,34.47
2019-05-06T22:20:53.535Z,34.36
2019-05-06T22:25:46.831Z,34.25
2019-05-06T22:28:13.479Z,34.23
2019-05-06T22:30:42.472Z,34.18
2019-05-06T22:33:06.750Z,34.13
2019-05-06T22:35:33.388Z,34.12
2019-05-06T22:38:00.078Z,34.12
2019-05-06T22:40:26.714Z,34.12
2019-05-06T22:42:53.368Z,33.96
2019-05-06T22:45:22.093Z,33.96
2019-05-06T22:47:46.678Z,33.88
2019-05-06T22:50:13.314Z,33.89
2019-05-06T22:52:41.951Z,33.89
2019-05-06T22:55:06.591Z,33.85
2019-05-06T22:57:33.235Z,33.79
2019-05-06T22:59:59.920Z,33.73
2019-05-06T23:02:26.591Z,33.66
2019-05-06T23:04:53.241Z,33.66
2019-05-06T23:07:22.419Z,33.67
2019-05-06T23:12:13.160Z,33.48
2019-05-06T23:14:41.515Z,33.50
2019-05-06T23:17:06.518Z,33.46
2019-05-06T23:19:33.176Z,33.47
2019-05-06T23:21:59.855Z,33.36
2019-05-06T23:24:26.568Z,33.38
2019-05-06T23:26:54.826Z,33.33
2019-05-06T23:29:19.906Z,33.36
2019-05-06T23:31:46.551Z,33.29
2019-05-06T23:34:13.188Z,33.18
2019-05-06T23:36:41.754Z,33.14
2019-05-06T23:39:06.511Z,33.09
2019-05-06T23:41:33.157Z,33.07
2019-05-06T23:43:59.796Z,32.98
2019-05-06T23:46:26.427Z,33.02
2019-05-06T23:48:53.068Z,33.02
2019-05-06T23:51:22.206Z,32.92
2019-05-06T23:53:46.367Z,32.86
2019-05-06T23:58:39.664Z,32.85
